Pagina principale
METAR-TAF:

METAR-TAF

Aeroporti :

Nörvenich, Germania

latitudine: 50-50N, longitudine: 006-40E, altezza: 118 m

Osservazione

Il bollettino è stato emesso 26 minuti fa, alle 04:20 UTC
Vento 4 kt da nord
Temperature -4°C
Umidità 68%
Pressione 1032 hPa
Visibilità 10 km o più

METAR: ETNN 300420Z 35004KT 9999 M04/M09 Q1032 BLU+

Ora: 06:46 (04:46 UTC)


TAF: mancante

Osservazioni e previsioni meteorologiche di più di 4000 aeroporti (messaggi METAR e TAF).

Le stazioni disponibili sono rappresentate dai dischi gialli e rossi sulla carta.

Puntare il mouse per vedere il nome della stazione.

Clicca sopra per visualizzare le osservazioni e previsioni meteorologiche.

Per cambiare la mappa : fare clic sui pulsanti verdi con una croce nera per ingrandire, il pulsante verde con un trattino per diminuire, o sulla freccia verde per le mappe adiacenti.


METAR-TAF: